Cerejeira, Brazil
Current Conditions -  °F | °C
As of 6:00 PM on Monday 20 Oct 2014 (Local Time) from SBVH Reporting Station
Few Clouds Few Clouds  
Wind Chill: 77°   Ceiling: Unl
Heat Index: 79°   Visibility: 6mi
Dew Point: 70°   Wind: 7mph
Humidity: 78%   Direction: 90°E
Pressure: 29.91"   Gusts: NA
Location:  13.19°S, 60.81°W
Report Text: SBVH 202200Z 09006KT 9999 FEW025 FEW030TCU 25/21 Q1013
Loading
Personal Weather Stations






























Interactive Weather Map New forecast layout! Learn more

10-Day Weather Forecast

Advertisements
Track Severe Weather on mobile